createdAt,value
2023-04-03T00:02:34.864Z,14.35
2023-04-03T00:07:38.652Z,14.34
2023-04-03T00:12:44.039Z,14.31
2023-04-03T00:17:47.718Z,14.52
2023-04-03T00:22:51.595Z,14.15
2023-04-03T00:27:57.088Z,14.23
2023-04-03T00:33:00.940Z,14.42
2023-04-03T00:38:04.764Z,14.12
2023-04-03T00:43:14.091Z,14.28
2023-04-03T00:48:21.782Z,14.02
2023-04-03T00:53:29.043Z,13.75
2023-04-03T00:58:39.381Z,13.60
2023-04-03T01:03:43.365Z,13.84
2023-04-03T01:08:49.422Z,13.95
2023-04-03T01:13:54.944Z,13.79
2023-04-03T01:18:59.234Z,13.57
2023-04-03T01:24:16.586Z,13.59
2023-04-03T01:29:21.954Z,13.68
2023-04-03T01:34:28.573Z,13.17
2023-04-03T01:39:32.329Z,13.27
2023-04-03T01:44:36.038Z,12.96
2023-04-03T01:49:41.402Z,12.92
2023-04-03T01:54:45.143Z,12.77
2023-04-03T01:59:48.906Z,12.80
2023-04-03T02:04:54.322Z,12.85
2023-04-03T02:09:58.061Z,12.59
2023-04-03T02:15:01.820Z,12.41
2023-04-03T02:20:08.351Z,12.30
2023-04-03T02:25:12.442Z,12.04
2023-04-03T02:30:17.122Z,11.99
2023-04-03T02:35:22.580Z,11.91
2023-04-03T02:40:26.339Z,11.97
2023-04-03T02:45:30.030Z,11.80
2023-04-03T02:50:35.734Z,11.65
2023-04-03T02:55:39.733Z,11.57
2023-04-03T03:00:43.975Z,11.32
2023-04-03T03:05:49.329Z,11.17
2023-04-03T03:10:53.818Z,11.26
2023-04-03T03:15:57.743Z,10.97
2023-04-03T03:21:04.192Z,10.91
2023-04-03T03:26:09.588Z,10.99
2023-04-03T03:31:13.508Z,11.03
2023-04-03T03:36:19.097Z,11.05
2023-04-03T03:41:22.858Z,11.22
2023-04-03T03:46:26.730Z,11.27
2023-04-03T03:51:32.112Z,10.93
2023-04-03T03:56:36.557Z,10.90
2023-04-03T04:01:40.397Z,10.75
2023-04-03T04:06:45.887Z,10.63
2023-04-03T04:11:49.690Z,10.57
2023-04-03T04:16:53.456Z,10.60
2023-04-03T04:21:58.848Z,10.33
2023-04-03T04:27:02.591Z,10.36
2023-04-03T04:32:06.507Z,10.27
2023-04-03T04:37:11.917Z,10.25
2023-04-03T04:42:17.471Z,10.15
2023-04-03T04:47:21.843Z,10.26
2023-04-03T04:52:27.205Z,10.17
2023-04-03T04:57:31.051Z,10.14
2023-04-03T05:02:34.862Z,10.23
2023-04-03T05:07:40.286Z,10.17
2023-04-03T05:12:44.021Z,10.12
2023-04-03T05:17:47.797Z,10.09
2023-04-03T05:22:53.197Z,9.90
2023-04-03T05:27:56.866Z,9.81
2023-04-03T05:33:01.373Z,9.80
2023-04-03T05:38:06.949Z,9.84
2023-04-03T05:43:11.091Z,9.81
2023-04-03T05:48:14.877Z,9.72
2023-04-03T05:53:23.814Z,9.66
2023-04-03T05:58:27.561Z,9.93
2023-04-03T06:03:31.349Z,9.78
2023-04-03T06:08:36.777Z,9.67
2023-04-03T06:13:41.105Z,9.58
2023-04-03T06:18:44.830Z,9.48
2023-04-03T06:23:50.171Z,9.28
2023-04-03T06:28:53.826Z,9.29
2023-04-03T06:33:57.488Z,9.26
2023-04-03T06:39:04.060Z,9.29
2023-04-03T06:44:07.727Z,9.29
2023-04-03T06:49:11.675Z,9.11
2023-04-03T06:54:17.009Z,9.15
2023-04-03T06:59:20.689Z,9.16
2023-04-03T07:04:24.400Z,9.16
2023-04-03T07:09:29.736Z,9.11
2023-04-03T07:14:33.373Z,9.05
2023-04-03T07:19:37.038Z,9.10
2023-04-03T07:24:42.460Z,9.02
2023-04-03T07:29:46.133Z,9.03
2023-04-03T07:34:49.802Z,8.86
2023-04-03T07:39:55.238Z,8.80
2023-04-03T07:44:58.904Z,8.76
2023-04-03T07:50:02.632Z,8.85
2023-04-03T07:55:08.938Z,8.56
2023-04-03T08:00:12.457Z,8.73
2023-04-03T08:05:16.193Z,8.65
2023-04-03T08:10:21.560Z,8.69
2023-04-03T08:15:25.242Z,8.80
2023-04-03T08:20:29.441Z,8.63
2023-04-03T08:25:35.184Z,8.58
2023-04-03T08:30:41.479Z,8.54
2023-04-03T08:35:45.386Z,8.53
2023-04-03T08:41:03.087Z,8.56
2023-04-03T08:46:13.032Z,8.48
2023-04-03T08:51:19.592Z,8.57
2023-04-03T08:56:27.409Z,8.44
2023-04-03T09:01:36.817Z,8.38
2023-04-03T09:06:42.338Z,8.27
2023-04-03T09:11:56.984Z,8.22
2023-04-03T09:17:02.370Z,8.20
2023-04-03T09:22:18.218Z,8.14
2023-04-03T09:27:23.572Z,8.09
2023-04-03T09:32:29.948Z,8.06
2023-04-03T09:37:41.018Z,8.01
2023-04-03T09:42:52.005Z,7.85
2023-04-03T09:48:16.774Z,7.88
2023-04-03T09:53:30.564Z,7.79
2023-04-03T09:58:49.756Z,7.83
2023-04-03T10:04:07.938Z,7.88
2023-04-03T10:09:21.629Z,7.70
2023-04-03T10:14:26.952Z,7.70
2023-04-03T10:19:40.828Z,7.76
2023-04-03T10:24:59.948Z,7.81
2023-04-03T10:30:20.565Z,7.66
2023-04-03T10:35:39.121Z,7.74
2023-04-03T10:40:52.433Z,7.66
2023-04-03T10:46:02.277Z,7.60
2023-04-03T10:51:18.161Z,7.59
2023-04-03T10:56:31.111Z,7.60
2023-04-03T11:01:42.380Z,7.42
2023-04-03T11:06:51.285Z,7.30
2023-04-03T11:12:02.412Z,7.27
2023-04-03T11:17:20.761Z,7.28
2023-04-03T11:22:28.505Z,7.28
2023-04-03T11:27:40.253Z,7.18
2023-04-03T11:33:03.944Z,7.15
2023-04-03T11:38:08.067Z,7.16
2023-04-03T11:43:24.466Z,7.06
2023-04-03T11:48:54.312Z,7.06
2023-04-03T11:54:44.012Z,7.09
2023-04-03T11:59:48.738Z,6.91
2023-04-03T12:05:30.238Z,6.98
2023-04-03T12:10:35.634Z,6.90
2023-04-03T12:15:52.261Z,6.92
2023-04-03T12:20:56.024Z,6.89
2023-04-03T12:26:19.967Z,6.90
2023-04-03T12:31:27.148Z,6.77
2023-04-03T12:36:41.730Z,6.87
2023-04-03T12:41:58.070Z,6.88
2023-04-03T12:47:03.797Z,6.93
2023-04-03T12:52:18.499Z,6.87
2023-04-03T12:57:27.234Z,6.86
2023-04-03T13:02:32.649Z,6.86
2023-04-03T13:07:39.014Z,6.82
2023-04-03T13:12:54.330Z,6.68
2023-04-03T13:17:58.521Z,6.65
2023-04-03T13:23:04.795Z,6.64
2023-04-03T13:28:14.569Z,6.65
2023-04-03T13:33:24.262Z,6.60
2023-04-03T13:38:30.152Z,6.52
2023-04-03T13:43:37.765Z,6.58
2023-04-03T13:48:42.971Z,6.47
2023-04-03T13:53:50.510Z,6.41
2023-04-03T13:59:16.235Z,6.36
2023-04-03T14:04:22.265Z,6.44
2023-04-03T14:09:27.793Z,6.34
2023-04-03T14:14:35.045Z,6.35
2023-04-03T14:19:38.938Z,6.57
2023-04-03T14:24:42.642Z,6.88
2023-04-03T14:29:48.446Z,7.08
2023-04-03T14:34:53.017Z,7.19
2023-04-03T14:39:57.823Z,7.49
2023-04-03T14:45:04.446Z,7.76
2023-04-03T14:50:13.216Z,8.10
2023-04-03T14:55:19.436Z,8.41
2023-04-03T15:00:24.957Z,8.96
2023-04-03T15:05:28.728Z,9.37
2023-04-03T15:10:33.269Z,9.63
2023-04-03T15:15:39.515Z,10.11
2023-04-03T15:20:43.622Z,10.66
2023-04-03T15:25:48.538Z,10.81
2023-04-03T15:30:54.041Z,11.20
2023-04-03T15:36:06.642Z,11.48
2023-04-03T15:41:11.482Z,12.17
2023-04-03T15:46:16.972Z,12.45
2023-04-03T15:51:20.718Z,12.84
2023-04-03T15:56:24.406Z,13.14
2023-04-03T16:01:29.865Z,13.23
2023-04-03T16:06:33.659Z,13.11
2023-04-03T16:11:37.343Z,13.78
2023-04-03T16:16:42.765Z,14.17
2023-04-03T16:21:46.432Z,14.38
2023-04-03T16:26:50.046Z,14.33
2023-04-03T16:31:55.549Z,14.92
2023-04-03T16:36:59.379Z,15.01
2023-04-03T16:42:03.411Z,15.07
2023-04-03T16:47:09.320Z,15.24
2023-04-03T16:52:12.206Z,15.54
2023-04-03T16:57:15.851Z,15.41
2023-04-03T17:02:21.807Z,15.72
2023-04-03T17:07:26.656Z,15.74
2023-04-03T17:12:30.340Z,15.98
2023-04-03T17:17:36.216Z,16.07
2023-04-03T17:22:39.139Z,16.06
2023-04-03T17:27:42.816Z,16.02
2023-04-03T17:32:49.174Z,16.11
2023-04-03T17:37:52.873Z,16.20
2023-04-03T17:42:56.588Z,16.46
2023-04-03T17:48:01.985Z,16.53
2023-04-03T17:53:05.729Z,16.43
2023-04-03T17:58:09.433Z,16.60
2023-04-03T18:03:14.771Z,16.75
2023-04-03T18:08:18.500Z,16.67
2023-04-03T18:13:22.200Z,17.00
2023-04-03T18:18:28.494Z,16.93
2023-04-03T18:23:34.514Z,17.04
2023-04-03T18:28:39.344Z,17.21
2023-04-03T18:33:44.736Z,17.53
2023-04-03T18:38:48.489Z,17.79
2023-04-03T18:43:52.319Z,17.48
2023-04-03T18:48:58.356Z,17.78
2023-04-03T18:54:02.724Z,18.02
2023-04-03T18:59:07.087Z,17.81
2023-04-03T19:04:12.694Z,18.27
2023-04-03T19:09:16.820Z,18.28
2023-04-03T19:14:20.541Z,18.22
2023-04-03T19:19:25.943Z,17.89
2023-04-03T19:24:29.600Z,17.43
2023-04-03T19:29:33.251Z,17.68
2023-04-03T19:34:38.549Z,17.78
2023-04-03T19:39:42.241Z,17.53
2023-04-03T19:44:46.662Z,17.57
2023-04-03T19:49:52.992Z,17.18
2023-04-03T19:54:56.607Z,17.32
2023-04-03T20:00:00.256Z,17.86
2023-04-03T20:05:06.048Z,17.92
2023-04-03T20:10:10.644Z,17.84
2023-04-03T20:15:14.543Z,17.86
2023-04-03T20:20:19.943Z,17.33
2023-04-03T20:25:43.760Z,17.28
2023-04-03T20:30:48.206Z,17.26
2023-04-03T20:35:53.631Z,17.13
2023-04-03T20:40:57.334Z,17.08
2023-04-03T20:46:01.712Z,17.42
2023-04-03T20:51:13.738Z,17.43
2023-04-03T20:56:17.666Z,16.90
2023-04-03T21:01:22.641Z,17.26
2023-04-03T21:07:02.963Z,17.42
2023-04-03T21:12:42.872Z,16.98
2023-04-03T21:18:07.112Z,17.16
2023-04-03T21:23:10.786Z,17.01
2023-04-03T21:28:14.474Z,17.35
2023-04-03T21:33:19.750Z,17.10
2023-04-03T21:38:23.438Z,16.94
2023-04-03T21:43:27.097Z,16.91
2023-04-03T21:48:32.379Z,16.96
2023-04-03T21:53:36.055Z,17.11
2023-04-03T21:58:39.769Z,16.77
2023-04-03T22:03:46.057Z,16.90
2023-04-03T22:08:49.693Z,16.77
2023-04-03T22:13:54.160Z,16.45
2023-04-03T22:19:00.396Z,16.36
2023-04-03T22:24:04.160Z,16.74
2023-04-03T22:29:07.777Z,16.13
2023-04-03T22:34:13.217Z,15.77
2023-04-03T22:39:16.822Z,15.66
2023-04-03T22:44:20.488Z,15.85
2023-04-03T22:49:26.815Z,15.51
2023-04-03T22:54:30.473Z,15.25
2023-04-03T22:59:34.134Z,14.76
2023-04-03T23:04:39.469Z,14.67
2023-04-03T23:09:43.132Z,14.52
2023-04-03T23:14:46.806Z,14.09
2023-04-03T23:19:52.097Z,13.88
2023-04-03T23:24:55.778Z,14.01
2023-04-03T23:30:02.124Z,13.88
2023-04-03T23:35:08.193Z,13.68
2023-04-03T23:40:12.804Z,13.66
2023-04-03T23:45:16.604Z,13.32
2023-04-03T23:50:21.920Z,13.29
2023-04-03T23:55:25.651Z,13.12
